Aviation Digital Data Service (ADDS)

Output produced by TAFs form (1221 UTC 28 July 2014)
found at http://aviationweather.gov/adds/tafs/
 
KABQ 281141Z 2812/2912 35007KT P6SM FEW070 SCT120 
     FM281500 06008KT P6SM VCSH SCT080 BKN120 
     FM281800 13008KT P6SM SCT080 BKN120 
     FM282100 17013KT P6SM VCTS SCT080CB BKN110 
     FM290100 09010KT P6SM VCSH BKN100